createdAt,value
2018-04-02T04:00:53.503Z,0
2018-04-02T04:01:19.011Z,0
2018-04-02T04:01:44.502Z,0
2018-04-02T04:02:09.994Z,0
2018-04-02T04:02:35.485Z,0
2018-04-02T04:03:00.972Z,0
2018-04-02T04:03:26.470Z,0
2018-04-02T04:03:51.956Z,0
2018-04-02T04:04:17.441Z,0
2018-04-02T04:04:42.946Z,0
2018-04-02T04:05:08.408Z,0
2018-04-02T04:06:17.122Z,0
2018-04-02T04:06:42.624Z,0
2018-04-02T04:07:08.122Z,0
2018-04-02T04:07:33.622Z,0
2018-04-02T04:07:59.101Z,0
2018-04-02T04:08:24.564Z,0
2018-04-02T04:08:50.058Z,0
2018-04-02T04:09:15.518Z,0
2018-04-02T04:09:41.002Z,0
2018-04-02T04:10:06.491Z,0
2018-04-02T04:10:31.975Z,0
2018-04-02T04:10:57.440Z,0
2018-04-02T04:11:22.929Z,0
2018-04-02T04:11:48.428Z,0
2018-04-02T04:12:13.906Z,0
2018-04-02T04:12:39.375Z,0
2018-04-02T04:13:04.842Z,0
2018-04-02T04:13:30.346Z,0
2018-04-02T04:13:55.829Z,0
2018-04-02T04:14:21.311Z,0
2018-04-02T04:14:46.828Z,0
2018-04-02T04:15:12.307Z,0
2018-04-02T04:15:37.819Z,0
2018-04-02T04:16:03.327Z,0
2018-04-02T04:16:28.803Z,0
2018-04-02T04:16:54.285Z,0
2018-04-02T04:17:19.765Z,0
2018-04-02T04:17:45.296Z,0
2018-04-02T04:18:10.800Z,0
2018-04-02T04:18:36.288Z,0
2018-04-02T04:19:01.795Z,0
2018-04-02T04:19:27.284Z,0
2018-04-02T04:19:52.740Z,0
2018-04-02T04:20:18.210Z,0
2018-04-02T04:20:43.688Z,0
2018-04-02T04:21:09.139Z,0
2018-04-02T04:21:34.617Z,0
2018-04-02T04:22:00.138Z,0
2018-04-02T04:22:25.598Z,0
2018-04-02T04:22:51.111Z,0
2018-04-02T04:23:16.585Z,0
2018-04-02T04:23:42.055Z,0
2018-04-02T04:24:07.543Z,0
2018-04-02T04:24:33.032Z,0
2018-04-02T04:24:58.497Z,0
2018-04-02T04:25:24.015Z,0
2018-04-02T04:25:49.472Z,0
2018-04-02T04:26:14.972Z,0
2018-04-02T04:26:40.450Z,0
2018-04-02T04:27:05.935Z,0
2018-04-02T04:27:31.434Z,0
2018-04-02T04:27:56.935Z,0
2018-04-02T04:28:22.381Z,0
2018-04-02T04:28:47.829Z,0
2018-04-02T04:29:13.310Z,0
2018-04-02T04:29:38.806Z,0
2018-04-02T04:30:04.317Z,0
2018-04-02T04:30:29.792Z,0
2018-04-02T04:30:55.319Z,0
2018-04-02T04:31:20.819Z,0
2018-04-02T04:31:46.360Z,0
2018-04-02T04:32:11.807Z,0
2018-04-02T04:32:37.275Z,0
2018-04-02T04:33:02.762Z,0
2018-04-02T04:33:28.249Z,0
2018-04-02T04:33:53.761Z,0
2018-04-02T04:34:19.216Z,0
2018-04-02T04:34:44.698Z,0
2018-04-02T04:35:10.164Z,0
2018-04-02T04:35:35.642Z,0
2018-04-02T04:36:01.169Z,0
2018-04-02T04:36:26.603Z,0
2018-04-02T04:36:52.120Z,0
2018-04-02T04:37:17.591Z,0
2018-04-02T04:37:43.068Z,0
2018-04-02T04:38:08.547Z,0
2018-04-02T04:38:34.031Z,0
2018-04-02T04:38:59.563Z,0
2018-04-02T04:39:25.020Z,0
2018-04-02T04:39:50.502Z,0
2018-04-02T04:40:16.043Z,0
2018-04-02T04:40:41.503Z,0
2018-04-02T04:41:06.971Z,0
2018-04-02T04:42:25.884Z,0
2018-04-02T04:42:51.398Z,0
2018-04-02T04:43:16.862Z,0
2018-04-02T04:43:42.351Z,0
2018-04-02T04:44:07.814Z,0
2018-04-02T04:44:33.303Z,0
2018-04-02T04:45:57.288Z,0
2018-04-02T04:46:22.803Z,0
2018-04-02T04:46:48.296Z,0
2018-04-02T04:47:13.781Z,0
2018-04-02T04:47:39.254Z,0
2018-04-02T04:48:04.758Z,0
2018-04-02T04:49:23.720Z,0
2018-04-02T04:49:49.207Z,0
2018-04-02T04:50:14.695Z,0
2018-04-02T04:50:40.194Z,0
2018-04-02T04:51:05.686Z,0
2018-04-02T04:51:31.215Z,0
2018-04-02T04:51:56.659Z,0
2018-04-02T04:52:22.141Z,0
2018-04-02T04:52:47.643Z,0
2018-04-02T04:53:13.145Z,0
2018-04-02T04:53:38.601Z,0
2018-04-02T04:54:04.083Z,0
2018-04-02T04:54:29.537Z,0
2018-04-02T04:54:55.011Z,0
2018-04-02T04:55:20.548Z,0
2018-04-02T04:55:46.064Z,0
2018-04-02T04:56:11.568Z,0
2018-04-02T04:56:37.051Z,0
2018-04-02T04:57:02.509Z,0
2018-04-02T04:57:28.024Z,0
2018-04-02T04:57:53.552Z,0
2018-04-02T04:58:19.046Z,0
2018-04-02T04:59:32.875Z,0
2018-04-02T04:59:58.368Z,0
2018-04-02T05:00:23.847Z,0
2018-04-02T05:00:49.346Z,0
2018-04-02T05:01:14.842Z,0
2018-04-02T05:01:40.319Z,0
2018-04-02T05:02:05.819Z,0
2018-04-02T05:02:31.286Z,0
2018-04-02T05:02:56.772Z,0
2018-04-02T05:03:22.249Z,0
2018-04-02T05:03:47.776Z,0
2018-04-02T05:04:13.240Z,0
2018-04-02T05:04:38.708Z,0
2018-04-02T05:05:04.223Z,0
2018-04-02T05:05:29.692Z,0
2018-04-02T05:05:55.192Z,0
2018-04-02T05:06:20.664Z,0
2018-04-02T05:06:46.152Z,0
2018-04-02T05:07:11.605Z,0
2018-04-02T05:07:37.062Z,0
2018-04-02T05:08:02.584Z,5
2018-04-02T05:08:28.058Z,5
2018-04-02T05:08:53.569Z,5
2018-04-02T05:09:19.042Z,5
2018-04-02T05:09:44.545Z,5
2018-04-02T05:10:10.071Z,5
2018-04-02T05:10:35.558Z,5
2018-04-02T05:11:01.031Z,5
2018-04-02T05:11:26.528Z,5
2018-04-02T05:11:52.018Z,5
2018-04-02T05:12:17.499Z,5
2018-04-02T05:12:42.950Z,5
2018-04-02T05:13:08.444Z,5
2018-04-02T05:13:33.917Z,5
2018-04-02T05:13:59.393Z,5
2018-04-02T05:14:24.860Z,5
2018-04-02T05:14:50.368Z,5
2018-04-02T05:15:15.868Z,5
2018-04-02T05:15:41.382Z,5
2018-04-02T05:16:06.885Z,10
2018-04-02T05:16:32.378Z,10
2018-04-02T05:16:57.839Z,5
2018-04-02T05:17:23.326Z,5
2018-04-02T05:17:48.810Z,10
2018-04-02T05:18:14.281Z,5
2018-04-02T05:18:39.763Z,10
2018-04-02T05:19:05.259Z,10
2018-04-02T05:19:30.733Z,10
2018-04-02T05:19:56.239Z,10
2018-04-02T05:20:21.734Z,10
2018-04-02T05:20:47.230Z,10
2018-04-02T05:21:12.714Z,10
2018-04-02T05:21:38.252Z,10
2018-04-02T05:22:03.729Z,10
2018-04-02T05:22:29.252Z,10
2018-04-02T05:22:54.714Z,10
2018-04-02T05:23:20.207Z,10
2018-04-02T05:23:45.708Z,10
2018-04-02T05:24:11.234Z,10
2018-04-02T05:24:36.718Z,10
2018-04-02T05:25:02.195Z,15
2018-04-02T05:25:27.717Z,15
2018-04-02T05:25:53.185Z,15
2018-04-02T05:26:18.700Z,15
2018-04-02T05:26:44.207Z,15
2018-04-02T05:27:09.712Z,15
2018-04-02T05:27:35.221Z,15
2018-04-02T05:28:00.725Z,15
2018-04-02T05:28:26.185Z,15
2018-04-02T05:28:51.726Z,15
2018-04-02T05:29:17.240Z,15
2018-04-02T05:29:42.710Z,10
2018-04-02T05:30:08.196Z,10
2018-04-02T05:30:33.691Z,10
2018-04-02T05:30:59.253Z,15
2018-04-02T05:31:24.702Z,15
2018-04-02T05:32:53.773Z,15
2018-04-02T05:33:19.273Z,15
2018-04-02T05:33:44.739Z,15
2018-04-02T05:34:10.237Z,15
2018-04-02T05:34:35.696Z,15
2018-04-02T05:35:01.183Z,15
2018-04-02T05:35:26.660Z,15
2018-04-02T05:35:52.135Z,20
2018-04-02T05:36:17.620Z,20
2018-04-02T05:36:43.112Z,20
2018-04-02T05:37:08.594Z,20
2018-04-02T05:37:34.063Z,20
2018-04-02T05:37:59.532Z,20
2018-04-02T05:38:25.018Z,20
2018-04-02T05:38:50.523Z,20
2018-04-02T05:39:16.024Z,20
2018-04-02T05:39:41.515Z,20
2018-04-02T05:40:07.016Z,20
2018-04-02T05:40:32.510Z,20
2018-04-02T05:40:58.050Z,25
2018-04-02T05:41:23.554Z,25
2018-04-02T05:41:49.095Z,25
2018-04-02T05:42:14.584Z,25
2018-04-02T05:42:40.073Z,25
2018-04-02T05:43:05.545Z,30
2018-04-02T05:43:31.023Z,30
2018-04-02T05:43:56.526Z,30
2018-04-02T05:44:21.976Z,30
2018-04-02T05:44:47.482Z,30
2018-04-02T05:45:13.020Z,30
2018-04-02T05:45:38.453Z,30
2018-04-02T05:46:03.942Z,35
2018-04-02T05:46:29.429Z,35
2018-04-02T05:46:54.890Z,35
2018-04-02T05:47:20.392Z,35
2018-04-02T05:47:45.871Z,35
2018-04-02T05:48:11.360Z,35
2018-04-02T05:48:36.843Z,30
2018-04-02T05:49:02.342Z,30
2018-04-02T05:49:27.846Z,30
2018-04-02T05:49:53.312Z,30
2018-04-02T05:50:18.827Z,30
2018-04-02T05:50:44.301Z,30
2018-04-02T05:51:09.777Z,35
2018-04-02T05:51:35.279Z,35
2018-04-02T05:52:00.736Z,35
2018-04-02T05:52:26.234Z,35
2018-04-02T05:52:51.728Z,35
2018-04-02T05:53:17.255Z,35
2018-04-02T05:53:42.747Z,35
2018-04-02T05:54:08.283Z,35
2018-04-02T05:54:33.756Z,35
2018-04-02T05:54:59.241Z,35
2018-04-02T05:55:24.740Z,35
2018-04-02T05:56:43.683Z,35
2018-04-02T05:57:09.199Z,40
2018-04-02T05:57:34.705Z,40
2018-04-02T05:58:00.160Z,45
2018-04-02T05:58:25.613Z,45
2018-04-02T05:58:51.082Z,45
2018-04-02T05:59:16.558Z,45
2018-04-02T05:59:42.095Z,45
2018-04-02T06:00:07.565Z,50
2018-04-02T06:00:32.984Z,55
2018-04-02T06:00:58.442Z,60
2018-04-02T06:01:23.896Z,65
2018-04-02T06:01:49.388Z,70
2018-04-02T06:02:14.879Z,70
2018-04-02T06:02:40.330Z,65
2018-04-02T06:03:05.828Z,65
2018-04-02T06:03:31.296Z,65
2018-04-02T06:03:56.794Z,65
2018-04-02T06:04:22.286Z,65
2018-04-02T06:04:47.763Z,65
2018-04-02T06:05:13.260Z,65
2018-04-02T06:05:38.732Z,65
2018-04-02T06:06:04.232Z,70
2018-04-02T06:06:29.707Z,70
2018-04-02T06:06:55.211Z,70
2018-04-02T06:07:20.657Z,70
2018-04-02T06:07:46.161Z,70
2018-04-02T06:08:11.665Z,70
2018-04-02T06:08:37.211Z,65
2018-04-02T06:09:02.657Z,65
2018-04-02T06:09:28.150Z,70
2018-04-02T06:09:53.598Z,75
2018-04-02T06:10:19.090Z,80
2018-04-02T06:10:44.588Z,85
2018-04-02T06:11:10.090Z,85
2018-04-02T06:11:35.609Z,85
2018-04-02T06:12:01.113Z,85
2018-04-02T06:12:26.588Z,85
2018-04-02T06:12:52.086Z,90
2018-04-02T06:13:17.556Z,90
2018-04-02T06:13:43.042Z,95
2018-04-02T06:14:08.520Z,100
2018-04-02T06:14:34.019Z,105
2018-04-02T06:14:59.478Z,105
2018-04-02T06:15:24.957Z,110
2018-04-02T06:15:50.434Z,110
2018-04-02T06:16:15.951Z,110
2018-04-02T06:16:41.430Z,105
2018-04-02T06:17:06.911Z,105
2018-04-02T06:17:32.422Z,110
2018-04-02T06:17:57.913Z,110
2018-04-02T06:18:23.374Z,110
2018-04-02T06:18:48.947Z,115
2018-04-02T06:19:14.445Z,115
2018-04-02T06:19:39.932Z,120
2018-04-02T06:20:05.409Z,120
2018-04-02T06:20:30.946Z,120
2018-04-02T06:20:56.436Z,125
2018-04-02T06:21:21.926Z,125
2018-04-02T06:21:47.424Z,125
2018-04-02T06:22:12.886Z,125
2018-04-02T06:22:38.422Z,125
2018-04-02T06:23:03.937Z,125
2018-04-02T06:23:29.426Z,125
2018-04-02T06:23:54.899Z,125
2018-04-02T06:24:20.413Z,125
2018-04-02T06:24:45.931Z,125
2018-04-02T06:25:11.418Z,125
2018-04-02T06:25:36.905Z,120
2018-04-02T06:26:02.366Z,115
2018-04-02T06:26:27.849Z,115
2018-04-02T06:26:53.327Z,110
2018-04-02T06:27:18.846Z,105
2018-04-02T06:27:44.335Z,105
2018-04-02T06:28:09.809Z,105
2018-04-02T06:28:35.270Z,100
2018-04-02T06:29:00.798Z,100
2018-04-02T06:29:26.293Z,95
2018-04-02T06:29:51.802Z,95
2018-04-02T06:30:17.310Z,95
2018-04-02T06:30:42.783Z,95
2018-04-02T06:31:08.289Z,95
2018-04-02T06:31:33.794Z,95
2018-04-02T06:31:59.255Z,95
2018-04-02T06:32:24.762Z,95
2018-04-02T06:32:50.302Z,100
2018-04-02T06:33:15.769Z,100
2018-04-02T06:33:41.253Z,100
2018-04-02T06:34:06.759Z,105
2018-04-02T06:34:32.279Z,105
2018-04-02T06:34:57.761Z,110
2018-04-02T06:35:23.244Z,110
2018-04-02T06:35:48.748Z,115
2018-04-02T06:36:14.249Z,120
2018-04-02T06:36:39.762Z,120
2018-04-02T06:37:05.338Z,125
2018-04-02T06:37:30.742Z,125
2018-04-02T06:37:56.200Z,130
2018-04-02T06:38:21.696Z,130
2018-04-02T06:38:47.175Z,135
2018-04-02T06:39:12.681Z,135
2018-04-02T06:39:38.185Z,140
2018-04-02T06:40:03.665Z,150
2018-04-02T06:40:29.190Z,160
2018-04-02T06:40:54.662Z,170
2018-04-02T06:41:20.155Z,180
2018-04-02T06:41:45.651Z,185
2018-04-02T06:42:11.257Z,185
2018-04-02T06:42:36.756Z,185
2018-04-02T06:43:02.276Z,185
2018-04-02T06:43:27.805Z,180
2018-04-02T06:43:53.276Z,180
2018-04-02T06:44:18.809Z,180
2018-04-02T06:44:44.266Z,180
2018-04-02T06:45:09.808Z,180
2018-04-02T06:46:38.820Z,155
2018-04-02T06:47:04.308Z,145
2018-04-02T06:47:29.837Z,145
2018-04-02T06:47:55.337Z,140
2018-04-02T06:48:20.817Z,140
2018-04-02T06:48:46.301Z,135
2018-04-02T06:49:11.766Z,135
2018-04-02T06:49:37.266Z,135
2018-04-02T06:50:02.722Z,135
2018-04-02T06:50:28.247Z,135
2018-04-02T06:50:53.727Z,130
2018-04-02T06:51:19.199Z,125
2018-04-02T06:51:44.696Z,125
2018-04-02T06:52:10.180Z,120
2018-04-02T06:52:35.697Z,120
2018-04-02T06:53:01.226Z,125
2018-04-02T06:53:26.638Z,125
2018-04-02T06:53:52.112Z,130
2018-04-02T06:54:17.583Z,130
2018-04-02T06:55:26.290Z,135
2018-04-02T06:55:51.783Z,140
2018-04-02T06:56:17.268Z,140
2018-04-02T06:56:42.779Z,140
2018-04-02T06:57:08.262Z,145
2018-04-02T06:57:33.748Z,145
2018-04-02T06:57:59.200Z,145
2018-04-02T06:58:24.701Z,150
2018-04-02T06:58:50.163Z,150
2018-04-02T06:59:15.661Z,155
2018-04-02T06:59:41.125Z,150
2018-04-02T07:00:06.617Z,155
2018-04-02T07:00:32.146Z,155
2018-04-02T07:00:57.593Z,155
2018-04-02T07:01:23.053Z,160
2018-04-02T07:01:48.545Z,160
2018-04-02T07:02:14.006Z,160
2018-04-02T07:02:39.524Z,160
2018-04-02T07:03:05.015Z,160
2018-04-02T07:03:30.506Z,160
2018-04-02T07:03:55.983Z,160
2018-04-02T07:04:21.495Z,165
2018-04-02T07:04:46.979Z,165
2018-04-02T07:05:12.479Z,165
2018-04-02T07:05:37.934Z,165
2018-04-02T07:06:51.758Z,170
2018-04-02T07:07:17.259Z,175
2018-04-02T07:07:42.753Z,175
2018-04-02T07:08:08.246Z,180
2018-04-02T07:08:33.716Z,180
2018-04-02T07:08:59.211Z,185
2018-04-02T07:09:24.695Z,190
2018-04-02T07:09:50.181Z,190
2018-04-02T07:10:15.649Z,195
2018-04-02T07:10:41.118Z,200
2018-04-02T07:11:06.627Z,200
2018-04-02T07:11:32.092Z,200
2018-04-02T07:11:57.604Z,205
2018-04-02T07:12:23.141Z,205
2018-04-02T07:12:48.618Z,205
2018-04-02T07:13:14.119Z,210
2018-04-02T07:13:39.622Z,215
2018-04-02T07:14:05.087Z,220
2018-04-02T07:14:30.557Z,220
2018-04-02T07:14:56.073Z,225
2018-04-02T07:15:21.547Z,230
2018-04-02T07:15:47.053Z,230
2018-04-02T07:16:12.589Z,230
2018-04-02T07:16:38.026Z,235
2018-04-02T07:17:56.945Z,235
2018-04-02T07:18:22.420Z,235
2018-04-02T07:18:47.936Z,235
2018-04-02T07:19:13.433Z,235
2018-04-02T07:19:38.925Z,230
2018-04-02T07:20:04.428Z,230
2018-04-02T07:20:29.925Z,225
2018-04-02T07:20:55.401Z,220
2018-04-02T07:21:20.892Z,215
2018-04-02T07:21:46.407Z,210
2018-04-02T07:22:11.911Z,210
2018-04-02T07:22:37.594Z,205
2018-04-02T07:23:03.160Z,200
2018-04-02T07:23:29.066Z,195
2018-04-02T07:23:54.619Z,195
2018-04-02T07:24:20.181Z,195
2018-04-02T07:24:45.629Z,190
2018-04-02T07:25:11.113Z,185
2018-04-02T07:25:36.694Z,185
2018-04-02T07:26:02.175Z,180
2018-04-02T07:26:27.664Z,180
2018-04-02T07:26:53.192Z,180
2018-04-02T07:27:18.627Z,180
2018-04-02T07:27:44.104Z,180
2018-04-02T07:28:09.630Z,185
2018-04-02T07:28:35.102Z,185
2018-04-02T07:29:00.560Z,185
2018-04-02T07:29:26.101Z,185
2018-04-02T07:29:51.578Z,185
2018-04-02T07:30:17.089Z,185
2018-04-02T07:30:42.588Z,180
2018-04-02T07:31:08.050Z,180
2018-04-02T07:31:33.588Z,175
2018-04-02T07:31:59.098Z,175
2018-04-02T07:32:24.697Z,170
2018-04-02T07:32:50.229Z,170
2018-04-02T07:33:15.721Z,170
2018-04-02T07:33:41.210Z,170
2018-04-02T07:34:06.652Z,170
2018-04-02T07:34:32.132Z,170
2018-04-02T07:34:57.604Z,175
2018-04-02T07:36:21.686Z,180
2018-04-02T07:36:47.197Z,185
2018-04-02T07:37:12.741Z,190
2018-04-02T07:37:38.285Z,190
2018-04-02T07:38:03.791Z,195
2018-04-02T07:38:29.310Z,200
2018-04-02T07:38:54.844Z,205
2018-04-02T07:39:20.346Z,210
2018-04-02T07:39:45.863Z,215
2018-04-02T07:40:11.341Z,220
2018-04-02T07:40:36.798Z,225
2018-04-02T07:41:02.285Z,235
2018-04-02T07:41:27.793Z,240
2018-04-02T07:41:53.231Z,255
2018-04-02T07:42:18.746Z,265
2018-04-02T07:42:44.266Z,270
2018-04-02T07:43:09.749Z,275
2018-04-02T07:44:38.911Z,295
2018-04-02T07:45:04.394Z,295
2018-04-02T07:45:29.863Z,300
2018-04-02T07:45:55.337Z,300
2018-04-02T07:46:20.856Z,310
2018-04-02T07:46:46.381Z,305
2018-04-02T07:47:11.873Z,300
2018-04-02T07:47:37.366Z,305
2018-04-02T07:48:02.883Z,310
2018-04-02T07:48:28.366Z,310
2018-04-02T07:48:53.850Z,325
2018-04-02T07:49:19.409Z,320
2018-04-02T07:49:44.898Z,315
2018-04-02T07:50:10.384Z,310
2018-04-02T07:50:35.912Z,305
2018-04-02T07:51:01.332Z,305
2018-04-02T07:51:26.836Z,310
2018-04-02T07:51:52.384Z,315
2018-04-02T07:52:17.836Z,310
2018-04-02T07:52:43.329Z,310
2018-04-02T07:53:08.791Z,300
2018-04-02T07:53:34.266Z,300
2018-04-02T07:53:59.777Z,295
2018-04-02T07:54:25.256Z,290
2018-04-02T07:54:50.781Z,290
2018-04-02T07:55:16.231Z,295
2018-04-02T07:55:41.740Z,310
2018-04-02T07:56:07.264Z,315
2018-04-02T07:56:32.722Z,320
2018-04-02T07:56:58.238Z,325
2018-04-02T07:57:23.705Z,330
2018-04-02T07:57:49.180Z,330
2018-04-02T07:58:14.642Z,335
2018-04-02T07:58:40.154Z,330
2018-04-02T07:59:05.668Z,330
2018-04-02T07:59:31.189Z,330
2018-04-02T07:59:56.683Z,330
2018-04-02T08:00:22.187Z,325
2018-04-02T08:00:47.632Z,320
2018-04-02T08:01:13.116Z,310
2018-04-02T08:01:38.622Z,300
2018-04-02T08:02:04.128Z,295
2018-04-02T08:02:29.643Z,285
2018-04-02T08:02:55.195Z,280
2018-04-02T08:03:20.612Z,275
2018-04-02T08:03:46.112Z,270
2018-04-02T08:04:11.593Z,270
2018-04-02T08:04:37.060Z,275
2018-04-02T08:05:02.506Z,280
2018-04-02T08:05:27.985Z,290
2018-04-02T08:05:53.495Z,305
2018-04-02T08:06:18.996Z,310
2018-04-02T08:06:44.489Z,315
2018-04-02T08:07:10.056Z,320
2018-04-02T08:07:35.602Z,325
2018-04-02T08:08:01.028Z,335
2018-04-02T08:08:26.537Z,330
2018-04-02T08:08:52.060Z,340
2018-04-02T08:09:17.542Z,345
2018-04-02T08:09:43.095Z,340
2018-04-02T08:10:08.610Z,350
2018-04-02T08:10:34.364Z,340
2018-04-02T08:10:59.850Z,335
2018-04-02T08:11:25.348Z,335
2018-04-02T08:11:50.839Z,345
2018-04-02T08:12:16.342Z,335
2018-04-02T08:12:41.861Z,330
2018-04-02T08:14:00.805Z,320
2018-04-02T08:14:26.295Z,315
2018-04-02T08:14:51.802Z,305
2018-04-02T08:15:17.305Z,300
2018-04-02T08:15:42.786Z,295
2018-04-02T08:16:08.253Z,295
2018-04-02T08:16:33.751Z,300
2018-04-02T08:16:59.262Z,310
2018-04-02T08:17:24.768Z,320
2018-04-02T08:17:50.267Z,325
2018-04-02T08:18:15.755Z,330
2018-04-02T08:18:41.215Z,335
2018-04-02T08:19:06.704Z,350
2018-04-02T08:19:32.174Z,355
2018-04-02T08:19:57.687Z,355
2018-04-02T08:20:23.163Z,360
2018-04-02T08:20:48.625Z,365
2018-04-02T08:21:14.126Z,375
2018-04-02T08:21:39.592Z,375
2018-04-02T08:22:05.066Z,375
2018-04-02T08:22:30.571Z,360
2018-04-02T08:22:56.028Z,350
2018-04-02T08:24:04.734Z,350
2018-04-02T08:24:30.217Z,350
2018-04-02T08:24:55.693Z,355
2018-04-02T08:25:21.148Z,355
2018-04-02T08:25:46.666Z,355
2018-04-02T08:26:12.112Z,350
2018-04-02T08:26:37.618Z,345
2018-04-02T08:27:03.085Z,340
2018-04-02T08:27:28.561Z,335
2018-04-02T08:27:54.061Z,335
2018-04-02T08:28:19.557Z,330
2018-04-02T08:28:45.064Z,320
2018-04-02T08:29:10.587Z,320
2018-04-02T08:29:36.067Z,320
2018-04-02T08:30:01.594Z,320
2018-04-02T08:30:27.097Z,320
2018-04-02T08:30:52.625Z,320
2018-04-02T08:31:18.118Z,320
2018-04-02T08:31:43.591Z,320
2018-04-02T08:32:09.059Z,325
2018-04-02T08:32:34.588Z,340
2018-04-02T08:33:00.015Z,310
2018-04-02T08:33:25.483Z,305
2018-04-02T08:33:50.990Z,305
2018-04-02T08:34:16.451Z,310
2018-04-02T08:34:41.925Z,320
2018-04-02T08:35:07.417Z,340
2018-04-02T08:35:32.912Z,350
2018-04-02T08:35:58.345Z,370
2018-04-02T08:36:23.858Z,350
2018-04-02T08:36:49.310Z,335
2018-04-02T08:37:14.788Z,330
2018-04-02T08:37:40.280Z,325
2018-04-02T08:38:05.750Z,315
2018-04-02T08:38:31.251Z,315
2018-04-02T08:38:56.825Z,325
2018-04-02T08:39:22.272Z,325
2018-04-02T08:39:47.770Z,315
2018-04-02T08:40:13.246Z,315
2018-04-02T08:40:38.761Z,310
2018-04-02T08:41:04.288Z,305
2018-04-02T08:41:29.794Z,300
2018-04-02T08:41:55.296Z,295
2018-04-02T08:42:20.797Z,295
2018-04-02T08:42:46.269Z,295
2018-04-02T08:43:11.794Z,300
2018-04-02T08:43:37.269Z,310
2018-04-02T08:44:02.761Z,310
2018-04-02T08:44:28.223Z,310
2018-04-02T08:44:53.715Z,325
2018-04-02T08:45:19.228Z,335
2018-04-02T08:45:44.704Z,345
2018-04-02T08:46:10.173Z,350
2018-04-02T08:46:35.660Z,355
2018-04-02T08:47:01.215Z,355
2018-04-02T08:47:26.684Z,355
2018-04-02T08:47:52.212Z,350
2018-04-02T08:48:17.691Z,350
2018-04-02T08:48:43.184Z,340
2018-04-02T08:49:08.659Z,335
2018-04-02T08:49:34.128Z,330
2018-04-02T08:49:59.642Z,330
2018-04-02T08:50:25.165Z,330
2018-04-02T08:50:50.644Z,335
2018-04-02T08:51:16.139Z,335
2018-04-02T08:51:41.630Z,330
2018-04-02T08:52:07.138Z,330
2018-04-02T08:52:32.630Z,325
2018-04-02T08:52:58.143Z,325
2018-04-02T08:53:23.603Z,325
2018-04-02T08:53:49.099Z,325
2018-04-02T08:54:14.609Z,320
2018-04-02T08:54:40.111Z,315
2018-04-02T08:55:05.635Z,310
2018-04-02T08:55:31.132Z,305
2018-04-02T08:55:56.615Z,310
2018-04-02T08:56:22.108Z,315
2018-04-02T08:56:47.586Z,320
2018-04-02T08:57:13.179Z,330
2018-04-02T08:57:38.615Z,340
2018-04-02T08:58:04.102Z,350
2018-04-02T08:58:29.600Z,370
2018-04-02T08:58:55.043Z,390
2018-04-02T08:59:20.537Z,405
2018-04-02T08:59:46.046Z,415
2018-04-02T09:00:11.510Z,415
2018-04-02T09:00:37.035Z,415
2018-04-02T09:01:02.544Z,410
2018-04-02T09:01:28.000Z,410
2018-04-02T09:01:53.527Z,405
2018-04-02T09:02:19.043Z,405
2018-04-02T09:02:44.521Z,400
2018-04-02T09:03:10.008Z,405
2018-04-02T09:03:35.537Z,400
2018-04-02T09:04:01.032Z,400
2018-04-02T09:04:26.559Z,405
2018-04-02T09:04:52.065Z,405
2018-04-02T09:05:17.539Z,405
2018-04-02T09:05:43.066Z,400
2018-04-02T09:06:08.581Z,395
2018-04-02T09:06:34.079Z,390
2018-04-02T09:06:59.586Z,380
2018-04-02T09:07:25.079Z,375
2018-04-02T09:07:50.589Z,375
2018-04-02T09:08:16.090Z,380
2018-04-02T09:08:41.558Z,390
2018-04-02T09:09:07.049Z,385
2018-04-02T09:10:21.846Z,380
2018-04-02T09:10:47.338Z,375
2018-04-02T09:11:12.792Z,375
2018-04-02T09:11:38.295Z,375
2018-04-02T09:12:03.786Z,375
2018-04-02T09:12:29.262Z,370
2018-04-02T09:12:54.770Z,360
2018-04-02T09:13:20.290Z,350
2018-04-02T09:13:45.765Z,350
2018-04-02T09:14:11.237Z,345
2018-04-02T09:14:36.721Z,340
2018-04-02T09:15:02.208Z,335
2018-04-02T09:15:27.730Z,335
2018-04-02T09:15:53.234Z,335
2018-04-02T09:16:18.717Z,335
2018-04-02T09:16:44.225Z,340
2018-04-02T09:17:09.744Z,350
2018-04-02T09:17:35.250Z,350
2018-04-02T09:18:00.727Z,355
2018-04-02T09:18:26.221Z,350
2018-04-02T09:18:51.671Z,345
2018-04-02T09:19:17.183Z,335
2018-04-02T09:19:42.669Z,330
2018-04-02T09:20:08.145Z,330
2018-04-02T09:20:33.659Z,325
2018-04-02T09:20:59.136Z,325
2018-04-02T09:21:24.660Z,320
2018-04-02T09:21:50.156Z,315
2018-04-02T09:22:15.668Z,315
2018-04-02T09:22:41.150Z,320
2018-04-02T09:23:06.638Z,320
2018-04-02T09:23:32.162Z,325
2018-04-02T09:23:57.624Z,325
2018-04-02T09:24:23.125Z,330
2018-04-02T09:24:48.618Z,330
2018-04-02T09:25:14.081Z,335
2018-04-02T09:25:39.536Z,340
2018-04-02T09:26:05.031Z,350
2018-04-02T09:26:30.486Z,350
2018-04-02T09:26:55.948Z,350
2018-04-02T09:27:21.469Z,350
2018-04-02T09:27:46.914Z,350
2018-04-02T09:28:12.394Z,345
2018-04-02T09:28:37.851Z,345
2018-04-02T09:29:03.330Z,340
2018-04-02T09:29:28.816Z,335
2018-04-02T09:29:54.334Z,325
2018-04-02T09:30:19.808Z,325
2018-04-02T09:30:45.318Z,315
2018-04-02T09:31:10.835Z,315
2018-04-02T09:31:36.261Z,315
2018-04-02T09:33:00.272Z,315
2018-04-02T09:33:25.746Z,320
2018-04-02T09:33:51.224Z,320
2018-04-02T09:34:16.707Z,320
2018-04-02T09:34:42.209Z,320
2018-04-02T09:35:07.692Z,320
2018-04-02T09:35:33.183Z,320
2018-04-02T09:35:58.731Z,325
2018-04-02T09:36:24.227Z,335
2018-04-02T09:36:49.700Z,345
2018-04-02T09:37:15.223Z,355
2018-04-02T09:37:40.764Z,365
2018-04-02T09:38:06.268Z,370
2018-04-02T09:38:31.762Z,380
2018-04-02T09:38:57.220Z,390
2018-04-02T09:39:22.672Z,390
2018-04-02T09:39:48.166Z,395
2018-04-02T09:40:13.650Z,400
2018-04-02T09:41:22.363Z,410
2018-04-02T09:41:47.841Z,405
2018-04-02T09:42:13.356Z,400
2018-04-02T09:42:38.847Z,395
2018-04-02T09:43:04.313Z,390
2018-04-02T09:43:29.799Z,380
2018-04-02T09:43:55.284Z,380
2018-04-02T09:44:20.806Z,385
2018-04-02T09:44:46.283Z,395
2018-04-02T09:45:11.806Z,405
2018-04-02T09:45:37.295Z,410
2018-04-02T09:46:02.787Z,415
2018-04-02T09:46:28.292Z,415
2018-04-02T09:46:53.779Z,415
2018-04-02T09:47:19.281Z,415
2018-04-02T09:47:44.817Z,415
2018-04-02T09:48:10.229Z,415
2018-04-02T09:48:35.713Z,410
2018-04-02T09:49:01.191Z,405
2018-04-02T09:49:26.710Z,400
2018-04-02T09:49:52.213Z,395
2018-04-02T09:50:17.721Z,395
2018-04-02T09:50:43.210Z,395
2018-04-02T09:51:08.677Z,400
2018-04-02T09:51:34.210Z,405
2018-04-02T09:51:59.696Z,415
2018-04-02T09:52:25.199Z,415
2018-04-02T09:52:50.657Z,415
2018-04-02T09:53:16.105Z,405
2018-04-02T09:53:41.652Z,395
2018-04-02T09:54:07.159Z,385
2018-04-02T09:54:32.609Z,380
2018-04-02T09:54:58.061Z,385
2018-04-02T09:55:23.589Z,395
2018-04-02T09:55:49.081Z,400
2018-04-02T09:57:13.105Z,415
2018-04-02T09:57:38.610Z,410
2018-04-02T09:58:04.118Z,405
2018-04-02T09:58:29.621Z,395
2018-04-02T09:58:55.126Z,380
2018-04-02T09:59:20.706Z,365
2018-04-02T09:59:46.152Z,360
2018-04-02T10:00:54.989Z,360
2018-04-02T10:01:20.334Z,360
2018-04-02T10:01:45.876Z,355
2018-04-02T10:02:11.578Z,350
2018-04-02T10:02:37.049Z,345
2018-04-02T10:03:02.526Z,345
2018-04-02T10:03:28.059Z,345
2018-04-02T10:03:53.537Z,350
2018-04-02T10:04:19.023Z,360
2018-04-02T10:04:44.692Z,370
2018-04-02T10:05:10.102Z,375
2018-04-02T10:05:35.710Z,370
2018-04-02T10:06:01.284Z,375
2018-04-02T10:06:26.766Z,370
2018-04-02T10:06:52.289Z,375
2018-04-02T10:07:17.792Z,380
2018-04-02T10:07:43.361Z,375
2018-04-02T10:08:08.986Z,375
2018-04-02T10:08:34.403Z,365
2018-04-02T10:08:59.891Z,360
2018-04-02T10:09:25.379Z,365
2018-04-02T10:09:50.884Z,370
2018-04-02T10:10:16.403Z,375
2018-04-02T10:10:41.840Z,380
2018-04-02T10:11:07.327Z,385
2018-04-02T10:11:32.826Z,385
2018-04-02T10:11:58.316Z,385
2018-04-02T10:12:23.836Z,380
2018-04-02T10:12:49.337Z,380
2018-04-02T10:13:14.840Z,380
2018-04-02T10:13:40.330Z,370
2018-04-02T10:14:05.798Z,365
2018-04-02T10:14:31.299Z,360
2018-04-02T10:14:56.782Z,350
2018-04-02T10:15:22.279Z,355
2018-04-02T10:15:47.743Z,355
2018-04-02T10:16:13.216Z,360